This is the latest recevied weather packets stored in our database for station/object WB4ROX. If no packets are shown the sender has not sent any weather packets the latest 10 day(s).
| Time | Temp. | Humidity | Pressure | Rain* | Wind** | Luminosity | Snow |
|---|---|---|---|---|---|---|---|
| 1778006253 | 17.78° C | 37% | 1018.4 hPa | 0 mm | - | 643 W/m² | - |
| 1778005951 | 17.78° C | 37% | 1018.5 hPa | 0 mm | - | 856 W/m² | - |
| 1778005647 | 17.78° C | 37% | 1018.5 hPa | 0 mm | - | 819 W/m² | - |
| 1778005344 | 17.22° C | 39% | 1018.6 hPa | 0 mm | - | 802 W/m² | - |
| 1778005040 | 16.67° C | 40% | 1018.8 hPa | 0 mm | - | 895 W/m² | - |
| 1778004738 | 17.22° C | 40% | 1018.9 hPa | 0 mm | - | 552 W/m² | - |
| 1778004434 | 17.22° C | 39% | 1018.6 hPa | 0 mm | - | 498 W/m² | - |
| 1778004131 | 17.22° C | 41% | 1018.9 hPa | 0 mm | - | 864 W/m² | - |
| 1778003827 | 16.67° C | 45% | 1018.9 hPa | 0 mm | - | 700 W/m² | - |
| 1778003523 | 16.67° C | 42% | 1019 hPa | 0 mm | - | 420 W/m² | - |
| 1778003220 | 17.22° C | 44% | 1018.9 hPa | 0 mm | - | 390 W/m² | - |
| 1778002916 | 17.22° C | 44% | 1019.1 hPa | 0 mm | - | 688 W/m² | - |
| 1778002613 | 17.22° C | 41% | 1018.9 hPa | 0 mm | - | 422 W/m² | - |
| 1778002310 | 17.78° C | 41% | 1019.1 hPa | 0 mm | - | 673 W/m² | - |
| 1778002007 | 17.78° C | 43% | 1019.1 hPa | 0 mm | - | 611 W/m² | - |
| 1778001704 | 17.22° C | 43% | 1019 hPa | 0 mm | - | 812 W/m² | - |
| 1778001403 | 17.22° C | 44% | 1018.9 hPa | 0 mm | - | 842 W/m² | - |
| 1778001101 | 17.78° C | 42% | 1019 hPa | 0 mm | - | 611 W/m² | - |
| 1778000798 | 17.22° C | 41% | 1019.1 hPa | 0 mm | - | 702 W/m² | - |
| 1778000495 | 17.78° C | 39% | 1018.8 hPa | 0 mm | - | 475 W/m² | - |
| 1778000195 | 17.78° C | 40% | 1019.1 hPa | 0 mm | - | 677 W/m² | - |
| 1777999891 | 18.33° C | 38% | 1019 hPa | 0 mm | - | 699 W/m² | - |
| 1777999587 | 18.33° C | 32% | 1019 hPa | 0 mm | - | 610 W/m² | - |
| 1777999285 | 17.78° C | 30% | 1019.1 hPa | 0 mm | - | 760 W/m² | - |
| 1777998983 | 17.78° C | 28% | 1019.3 hPa | 0 mm | - | 779 W/m² | - |
* Rain latest hour (hover to see other rain measurements)
** Current wind speed in m/s (hover to see current wind gust speed)